sensor_id;sensor_type;location;lat;lon;timestamp;P1;durP1;ratioP1;P2;durP2;ratioP2
46493;SDS011;53214;49.314;6.280;2024-01-30T00:01:12;18.90;;;9.82;;
46493;SDS011;53214;49.314;6.280;2024-01-30T00:03:39;24.00;;;10.20;;
46493;SDS011;53214;49.314;6.280;2024-01-30T00:06:07;24.65;;;9.55;;
46493;SDS011;53214;49.314;6.280;2024-01-30T00:08:34;23.55;;;9.02;;
46493;SDS011;53214;49.314;6.280;2024-01-30T00:11:01;25.38;;;10.27;;
46493;SDS011;53214;49.314;6.280;2024-01-30T00:13:28;27.35;;;9.60;;
46493;SDS011;53214;49.314;6.280;2024-01-30T00:15:55;26.27;;;11.10;;
46493;SDS011;53214;49.314;6.280;2024-01-30T00:18:21;34.40;;;11.63;;
46493;SDS011;53214;49.314;6.280;2024-01-30T00:20:48;27.35;;;10.27;;
46493;SDS011;53214;49.314;6.280;2024-01-30T00:23:15;29.10;;;11.32;;
46493;SDS011;53214;49.314;6.280;2024-01-30T00:25:42;27.13;;;11.35;;
46493;SDS011;53214;49.314;6.280;2024-01-30T00:28:09;29.85;;;10.52;;
46493;SDS011;53214;49.314;6.280;2024-01-30T00:30:36;32.20;;;11.77;;
46493;SDS011;53214;49.314;6.280;2024-01-30T00:33:02;36.28;;;12.18;;
46493;SDS011;53214;49.314;6.280;2024-01-30T00:35:29;27.92;;;11.40;;
46493;SDS011;53214;49.314;6.280;2024-01-30T00:37:56;29.75;;;11.65;;
46493;SDS011;53214;49.314;6.280;2024-01-30T00:40:23;25.55;;;11.23;;
46493;SDS011;53214;49.314;6.280;2024-01-30T00:42:50;33.17;;;10.90;;
46493;SDS011;53214;49.314;6.280;2024-01-30T00:45:17;28.08;;;10.95;;
46493;SDS011;53214;49.314;6.280;2024-01-30T00:47:44;28.13;;;11.18;;
46493;SDS011;53214;49.314;6.280;2024-01-30T00:50:11;29.20;;;11.48;;
46493;SDS011;53214;49.314;6.280;2024-01-30T00:52:38;29.90;;;11.38;;
46493;SDS011;53214;49.314;6.280;2024-01-30T00:55:06;27.90;;;11.93;;
46493;SDS011;53214;49.314;6.280;2024-01-30T00:57:33;27.58;;;11.00;;
46493;SDS011;53214;49.314;6.280;2024-01-30T01:00:00;27.08;;;11.40;;
46493;SDS011;53214;49.314;6.280;2024-01-30T01:02:27;26.05;;;11.77;;
46493;SDS011;53214;49.314;6.280;2024-01-30T01:04:54;28.83;;;11.05;;
46493;SDS011;53214;49.314;6.280;2024-01-30T01:07:21;32.42;;;12.23;;
46493;SDS011;53214;49.314;6.280;2024-01-30T01:09:48;30.70;;;11.85;;
46493;SDS011;53214;49.314;6.280;2024-01-30T01:12:14;31.75;;;12.82;;
46493;SDS011;53214;49.314;6.280;2024-01-30T01:14:42;34.83;;;12.52;;
46493;SDS011;53214;49.314;6.280;2024-01-30T01:17:08;33.47;;;12.20;;
46493;SDS011;53214;49.314;6.280;2024-01-30T01:19:35;35.50;;;11.60;;
46493;SDS011;53214;49.314;6.280;2024-01-30T01:22:02;30.42;;;12.32;;
46493;SDS011;53214;49.314;6.280;2024-01-30T01:24:32;30.55;;;10.88;;
46493;SDS011;53214;49.314;6.280;2024-01-30T01:27:00;27.08;;;11.20;;
46493;SDS011;53214;49.314;6.280;2024-01-30T01:29:27;28.52;;;11.18;;
46493;SDS011;53214;49.314;6.280;2024-01-30T01:31:57;32.30;;;11.07;;
46493;SDS011;53214;49.314;6.280;2024-01-30T01:34:24;26.73;;;10.45;;
46493;SDS011;53214;49.314;6.280;2024-01-30T01:36:55;27.92;;;11.68;;
46493;SDS011;53214;49.314;6.280;2024-01-30T01:39:22;25.77;;;11.55;;
46493;SDS011;53214;49.314;6.280;2024-01-30T01:41:50;22.15;;;10.80;;
46493;SDS011;53214;49.314;6.280;2024-01-30T01:44:17;25.70;;;11.27;;
46493;SDS011;53214;49.314;6.280;2024-01-30T01:46:44;24.77;;;10.23;;
46493;SDS011;53214;49.314;6.280;2024-01-30T01:49:11;24.98;;;10.85;;
46493;SDS011;53214;49.314;6.280;2024-01-30T01:51:39;24.08;;;9.93;;
46493;SDS011;53214;49.314;6.280;2024-01-30T01:54:08;27.92;;;10.60;;
46493;SDS011;53214;49.314;6.280;2024-01-30T01:56:35;27.13;;;10.60;;
46493;SDS011;53214;49.314;6.280;2024-01-30T01:59:04;23.55;;;10.00;;
46493;SDS011;53214;49.314;6.280;2024-01-30T02:01:33;27.80;;;10.50;;
46493;SDS011;53214;49.314;6.280;2024-01-30T02:04:02;25.20;;;9.38;;
46493;SDS011;53214;49.314;6.280;2024-01-30T02:06:30;24.50;;;9.10;;
46493;SDS011;53214;49.314;6.280;2024-01-30T02:08:58;28.63;;;9.40;;
46493;SDS011;53214;49.314;6.280;2024-01-30T02:11:25;23.02;;;8.70;;
46493;SDS011;53214;49.314;6.280;2024-01-30T02:13:52;24.45;;;9.27;;
46493;SDS011;53214;49.314;6.280;2024-01-30T02:16:19;17.35;;;7.85;;
46493;SDS011;53214;49.314;6.280;2024-01-30T02:18:46;24.15;;;8.10;;
46493;SDS011;53214;49.314;6.280;2024-01-30T02:21:15;19.45;;;7.60;;
46493;SDS011;53214;49.314;6.280;2024-01-30T02:23:48;25.27;;;9.20;;
46493;SDS011;53214;49.314;6.280;2024-01-30T02:26:16;19.25;;;7.47;;
46493;SDS011;53214;49.314;6.280;2024-01-30T02:28:43;24.63;;;8.05;;
46493;SDS011;53214;49.314;6.280;2024-01-30T02:31:10;23.13;;;7.50;;
46493;SDS011;53214;49.314;6.280;2024-01-30T02:33:37;17.42;;;6.72;;
46493;SDS011;53214;49.314;6.280;2024-01-30T02:36:04;15.65;;;5.53;;
46493;SDS011;53214;49.314;6.280;2024-01-30T02:38:31;22.70;;;5.80;;
46493;SDS011;53214;49.314;6.280;2024-01-30T02:40:58;16.38;;;4.72;;
46493;SDS011;53214;49.314;6.280;2024-01-30T02:43:24;12.23;;;4.25;;
46493;SDS011;53214;49.314;6.280;2024-01-30T02:45:51;17.80;;;4.57;;
46493;SDS011;53214;49.314;6.280;2024-01-30T02:48:18;17.63;;;4.05;;
46493;SDS011;53214;49.314;6.280;2024-01-30T02:50:45;7.80;;;2.50;;
46493;SDS011;53214;49.314;6.280;2024-01-30T02:53:13;8.38;;;2.05;;
46493;SDS011;53214;49.314;6.280;2024-01-30T02:55:40;10.43;;;2.00;;
46493;SDS011;53214;49.314;6.280;2024-01-30T02:58:06;10.32;;;2.13;;
46493;SDS011;53214;49.314;6.280;2024-01-30T03:00:33;5.75;;;1.65;;
46493;SDS011;53214;49.314;6.280;2024-01-30T03:03:00;7.47;;;1.58;;
46493;SDS011;53214;49.314;6.280;2024-01-30T03:05:28;7.88;;;1.65;;
46493;SDS011;53214;49.314;6.280;2024-01-30T03:07:55;6.13;;;1.58;;
46493;SDS011;53214;49.314;6.280;2024-01-30T03:10:22;6.95;;;1.45;;
46493;SDS011;53214;49.314;6.280;2024-01-30T03:12:50;6.95;;;1.98;;
46493;SDS011;53214;49.314;6.280;2024-01-30T03:15:17;5.40;;;1.20;;
46493;SDS011;53214;49.314;6.280;2024-01-30T03:17:43;7.93;;;1.17;;
46493;SDS011;53214;49.314;6.280;2024-01-30T03:20:10;8.43;;;1.70;;
46493;SDS011;53214;49.314;6.280;2024-01-30T03:22:38;6.40;;;1.20;;
46493;SDS011;53214;49.314;6.280;2024-01-30T03:25:04;5.68;;;1.60;;
46493;SDS011;53214;49.314;6.280;2024-01-30T03:27:32;9.90;;;1.10;;
46493;SDS011;53214;49.314;6.280;2024-01-30T03:29:59;4.22;;;1.17;;
46493;SDS011;53214;49.314;6.280;2024-01-30T03:32:26;5.20;;;1.40;;
46493;SDS011;53214;49.314;6.280;2024-01-30T03:34:53;7.18;;;1.23;;
46493;SDS011;53214;49.314;6.280;2024-01-30T03:37:20;3.15;;;0.70;;
46493;SDS011;53214;49.314;6.280;2024-01-30T03:39:47;5.63;;;1.05;;
46493;SDS011;53214;49.314;6.280;2024-01-30T03:42:14;6.25;;;1.10;;
46493;SDS011;53214;49.314;6.280;2024-01-30T03:44:41;5.65;;;1.00;;
46493;SDS011;53214;49.314;6.280;2024-01-30T03:47:08;5.00;;;1.20;;
46493;SDS011;53214;49.314;6.280;2024-01-30T03:49:35;7.45;;;1.15;;
46493;SDS011;53214;49.314;6.280;2024-01-30T03:52:02;3.65;;;0.75;;
46493;SDS011;53214;49.314;6.280;2024-01-30T03:54:29;8.23;;;0.80;;
46493;SDS011;53214;49.314;6.280;2024-01-30T03:56:56;6.72;;;1.35;;
46493;SDS011;53214;49.314;6.280;2024-01-30T03:59:23;8.65;;;1.90;;
46493;SDS011;53214;49.314;6.280;2024-01-30T04:01:50;5.32;;;1.00;;
46493;SDS011;53214;49.314;6.280;2024-01-30T04:04:18;5.45;;;1.02;;
46493;SDS011;53214;49.314;6.280;2024-01-30T04:06:45;5.72;;;1.50;;
46493;SDS011;53214;49.314;6.280;2024-01-30T04:09:13;5.05;;;0.98;;
46493;SDS011;53214;49.314;6.280;2024-01-30T04:11:41;6.53;;;1.13;;
46493;SDS011;53214;49.314;6.280;2024-01-30T04:14:10;5.18;;;1.30;;
46493;SDS011;53214;49.314;6.280;2024-01-30T04:16:37;4.18;;;1.10;;
46493;SDS011;53214;49.314;6.280;2024-01-30T04:19:04;3.05;;;0.90;;
46493;SDS011;53214;49.314;6.280;2024-01-30T04:21:31;3.92;;;0.90;;
46493;SDS011;53214;49.314;6.280;2024-01-30T04:23:57;3.65;;;0.95;;
46493;SDS011;53214;49.314;6.280;2024-01-30T04:26:24;3.60;;;0.82;;
46493;SDS011;53214;49.314;6.280;2024-01-30T04:28:51;4.88;;;1.00;;
46493;SDS011;53214;49.314;6.280;2024-01-30T04:31:18;5.63;;;1.10;;
46493;SDS011;53214;49.314;6.280;2024-01-30T04:33:45;7.72;;;1.30;;
46493;SDS011;53214;49.314;6.280;2024-01-30T04:36:12;6.78;;;1.30;;
46493;SDS011;53214;49.314;6.280;2024-01-30T04:38:39;4.88;;;1.40;;
46493;SDS011;53214;49.314;6.280;2024-01-30T04:41:06;4.30;;;1.55;;
46493;SDS011;53214;49.314;6.280;2024-01-30T04:43:33;4.22;;;1.23;;
46493;SDS011;53214;49.314;6.280;2024-01-30T04:46:00;4.03;;;1.48;;
46493;SDS011;53214;49.314;6.280;2024-01-30T04:48:27;4.38;;;1.40;;
46493;SDS011;53214;49.314;6.280;2024-01-30T04:50:54;4.63;;;1.10;;
46493;SDS011;53214;49.314;6.280;2024-01-30T04:53:22;5.05;;;1.30;;
46493;SDS011;53214;49.314;6.280;2024-01-30T04:55:49;4.03;;;1.00;;
46493;SDS011;53214;49.314;6.280;2024-01-30T04:58:16;7.10;;;1.20;;
46493;SDS011;53214;49.314;6.280;2024-01-30T05:00:43;7.03;;;1.60;;
46493;SDS011;53214;49.314;6.280;2024-01-30T05:03:10;5.10;;;1.65;;
46493;SDS011;53214;49.314;6.280;2024-01-30T05:05:36;4.90;;;1.33;;
46493;SDS011;53214;49.314;6.280;2024-01-30T05:08:03;4.47;;;1.20;;
46493;SDS011;53214;49.314;6.280;2024-01-30T05:10:30;4.72;;;1.00;;
46493;SDS011;53214;49.314;6.280;2024-01-30T05:12:57;4.53;;;1.00;;
46493;SDS011;53214;49.314;6.280;2024-01-30T05:15:24;6.97;;;1.08;;
46493;SDS011;53214;49.314;6.280;2024-01-30T05:17:51;2.78;;;0.90;;
46493;SDS011;53214;49.314;6.280;2024-01-30T05:20:18;3.40;;;0.77;;
46493;SDS011;53214;49.314;6.280;2024-01-30T05:22:46;5.28;;;0.90;;
46493;SDS011;53214;49.314;6.280;2024-01-30T05:25:13;4.07;;;0.70;;
46493;SDS011;53214;49.314;6.280;2024-01-30T05:27:40;1.95;;;0.63;;
46493;SDS011;53214;49.314;6.280;2024-01-30T05:30:07;2.17;;;0.50;;
46493;SDS011;53214;49.314;6.280;2024-01-30T05:32:34;3.83;;;0.82;;
46493;SDS011;53214;49.314;6.280;2024-01-30T05:35:01;5.03;;;0.80;;
46493;SDS011;53214;49.314;6.280;2024-01-30T05:37:28;2.83;;;0.50;;
46493;SDS011;53214;49.314;6.280;2024-01-30T05:39:55;1.85;;;0.50;;
46493;SDS011;53214;49.314;6.280;2024-01-30T05:42:21;1.90;;;0.50;;
46493;SDS011;53214;49.314;6.280;2024-01-30T05:44:48;1.80;;;0.60;;
46493;SDS011;53214;49.314;6.280;2024-01-30T05:47:15;2.05;;;0.88;;
46493;SDS011;53214;49.314;6.280;2024-01-30T05:49:42;1.65;;;0.80;;
46493;SDS011;53214;49.314;6.280;2024-01-30T05:52:09;3.30;;;0.70;;
46493;SDS011;53214;49.314;6.280;2024-01-30T05:54:36;3.83;;;0.90;;
46493;SDS011;53214;49.314;6.280;2024-01-30T05:57:03;2.22;;;0.75;;
46493;SDS011;53214;49.314;6.280;2024-01-30T05:59:29;1.05;;;0.50;;
46493;SDS011;53214;49.314;6.280;2024-01-30T06:01:56;1.05;;;0.40;;
46493;SDS011;53214;49.314;6.280;2024-01-30T06:04:23;0.90;;;0.60;;
46493;SDS011;53214;49.314;6.280;2024-01-30T06:06:50;1.95;;;0.50;;
46493;SDS011;53214;49.314;6.280;2024-01-30T06:09:17;1.65;;;0.55;;
46493;SDS011;53214;49.314;6.280;2024-01-30T06:11:44;0.75;;;0.43;;
46493;SDS011;53214;49.314;6.280;2024-01-30T06:14:11;0.70;;;0.43;;
46493;SDS011;53214;49.314;6.280;2024-01-30T06:16:38;1.52;;;0.50;;
46493;SDS011;53214;49.314;6.280;2024-01-30T06:19:05;1.13;;;0.68;;
46493;SDS011;53214;49.314;6.280;2024-01-30T06:21:32;0.68;;;0.50;;
46493;SDS011;53214;49.314;6.280;2024-01-30T06:24:02;1.85;;;0.60;;
46493;SDS011;53214;49.314;6.280;2024-01-30T06:26:29;1.08;;;0.43;;
46493;SDS011;53214;49.314;6.280;2024-01-30T06:28:56;1.67;;;0.57;;
46493;SDS011;53214;49.314;6.280;2024-01-30T06:31:23;0.93;;;0.60;;
46493;SDS011;53214;49.314;6.280;2024-01-30T06:33:50;0.82;;;0.50;;
46493;SDS011;53214;49.314;6.280;2024-01-30T06:36:17;1.63;;;0.75;;
46493;SDS011;53214;49.314;6.280;2024-01-30T06:38:44;1.30;;;0.70;;
46493;SDS011;53214;49.314;6.280;2024-01-30T06:41:10;1.73;;;0.93;;
46493;SDS011;53214;49.314;6.280;2024-01-30T06:43:37;2.75;;;1.30;;
46493;SDS011;53214;49.314;6.280;2024-01-30T06:46:04;2.20;;;1.10;;
46493;SDS011;53214;49.314;6.280;2024-01-30T06:48:31;0.70;;;0.60;;
46493;SDS011;53214;49.314;6.280;2024-01-30T06:50:58;2.55;;;0.80;;
46493;SDS011;53214;49.314;6.280;2024-01-30T06:53:24;3.08;;;0.90;;
46493;SDS011;53214;49.314;6.280;2024-01-30T06:55:52;1.40;;;0.70;;
46493;SDS011;53214;49.314;6.280;2024-01-30T06:58:19;1.85;;;0.60;;
46493;SDS011;53214;49.314;6.280;2024-01-30T07:00:46;1.27;;;0.73;;
46493;SDS011;53214;49.314;6.280;2024-01-30T07:03:13;3.03;;;0.80;;
46493;SDS011;53214;49.314;6.280;2024-01-30T07:05:39;1.33;;;0.80;;
46493;SDS011;53214;49.314;6.280;2024-01-30T07:08:06;1.52;;;0.85;;
46493;SDS011;53214;49.314;6.280;2024-01-30T07:10:33;2.28;;;0.90;;
46493;SDS011;53214;49.314;6.280;2024-01-30T07:13:00;3.00;;;1.20;;
46493;SDS011;53214;49.314;6.280;2024-01-30T07:15:27;1.67;;;1.50;;
46493;SDS011;53214;49.314;6.280;2024-01-30T07:17:55;3.25;;;1.63;;
46493;SDS011;53214;49.314;6.280;2024-01-30T07:20:22;2.38;;;1.65;;
46493;SDS011;53214;49.314;6.280;2024-01-30T07:22:49;4.75;;;2.10;;
46493;SDS011;53214;49.314;6.280;2024-01-30T07:25:16;4.22;;;2.22;;
46493;SDS011;53214;49.314;6.280;2024-01-30T07:27:43;3.22;;;1.50;;
46493;SDS011;53214;49.314;6.280;2024-01-30T07:30:10;1.83;;;1.00;;
46493;SDS011;53214;49.314;6.280;2024-01-30T07:32:37;1.65;;;0.95;;
46493;SDS011;53214;49.314;6.280;2024-01-30T07:35:04;2.35;;;1.42;;
46493;SDS011;53214;49.314;6.280;2024-01-30T07:37:34;6.55;;;1.42;;
46493;SDS011;53214;49.314;6.280;2024-01-30T07:40:02;2.80;;;1.23;;
46493;SDS011;53214;49.314;6.280;2024-01-30T07:42:30;2.95;;;1.58;;
46493;SDS011;53214;49.314;6.280;2024-01-30T07:44:57;4.75;;;2.90;;
46493;SDS011;53214;49.314;6.280;2024-01-30T07:47:24;7.78;;;3.05;;
46493;SDS011;53214;49.314;6.280;2024-01-30T07:49:51;5.07;;;2.47;;
46493;SDS011;53214;49.314;6.280;2024-01-30T07:52:18;6.30;;;3.45;;
46493;SDS011;53214;49.314;6.280;2024-01-30T07:54:48;5.78;;;3.20;;
46493;SDS011;53214;49.314;6.280;2024-01-30T07:57:15;6.00;;;3.28;;
46493;SDS011;53214;49.314;6.280;2024-01-30T07:59:43;5.13;;;3.05;;
46493;SDS011;53214;49.314;6.280;2024-01-30T08:02:14;5.75;;;3.17;;
46493;SDS011;53214;49.314;6.280;2024-01-30T08:04:41;3.45;;;2.10;;
46493;SDS011;53214;49.314;6.280;2024-01-30T08:07:08;5.03;;;2.10;;
46493;SDS011;53214;49.314;6.280;2024-01-30T08:09:35;4.95;;;2.63;;
46493;SDS011;53214;49.314;6.280;2024-01-30T08:12:02;5.03;;;3.83;;
46493;SDS011;53214;49.314;6.280;2024-01-30T08:14:29;6.25;;;3.17;;
46493;SDS011;53214;49.314;6.280;2024-01-30T08:16:56;7.20;;;3.20;;
46493;SDS011;53214;49.314;6.280;2024-01-30T08:19:23;6.38;;;2.83;;
46493;SDS011;53214;49.314;6.280;2024-01-30T08:21:49;7.18;;;3.20;;
46493;SDS011;53214;49.314;6.280;2024-01-30T08:24:16;6.55;;;3.90;;
46493;SDS011;53214;49.314;6.280;2024-01-30T08:26:43;8.68;;;4.60;;
46493;SDS011;53214;49.314;6.280;2024-01-30T08:29:10;9.60;;;5.78;;
46493;SDS011;53214;49.314;6.280;2024-01-30T08:31:37;7.32;;;4.38;;
46493;SDS011;53214;49.314;6.280;2024-01-30T08:34:04;6.05;;;3.40;;
46493;SDS011;53214;49.314;6.280;2024-01-30T08:36:31;13.40;;;3.47;;
46493;SDS011;53214;49.314;6.280;2024-01-30T08:38:58;9.38;;;3.10;;
46493;SDS011;53214;49.314;6.280;2024-01-30T08:41:29;5.90;;;2.50;;
46493;SDS011;53214;49.314;6.280;2024-01-30T08:43:56;4.97;;;2.22;;
46493;SDS011;53214;49.314;6.280;2024-01-30T08:46:23;4.78;;;1.98;;
46493;SDS011;53214;49.314;6.280;2024-01-30T08:48:50;4.53;;;2.28;;
46493;SDS011;53214;49.314;6.280;2024-01-30T08:51:17;10.20;;;5.20;;
46493;SDS011;53214;49.314;6.280;2024-01-30T08:53:44;8.55;;;5.18;;
46493;SDS011;53214;49.314;6.280;2024-01-30T08:56:11;6.55;;;3.88;;
46493;SDS011;53214;49.314;6.280;2024-01-30T08:58:38;6.78;;;2.40;;
46493;SDS011;53214;49.314;6.280;2024-01-30T09:01:05;4.93;;;2.63;;
46493;SDS011;53214;49.314;6.280;2024-01-30T09:03:32;5.00;;;2.40;;
46493;SDS011;53214;49.314;6.280;2024-01-30T09:05:59;8.80;;;4.40;;
46493;SDS011;53214;49.314;6.280;2024-01-30T09:08:26;8.18;;;3.20;;
46493;SDS011;53214;49.314;6.280;2024-01-30T09:10:53;5.95;;;2.38;;
46493;SDS011;53214;49.314;6.280;2024-01-30T09:13:20;7.10;;;2.25;;
46493;SDS011;53214;49.314;6.280;2024-01-30T09:15:47;3.70;;;2.20;;
46493;SDS011;53214;49.314;6.280;2024-01-30T09:18:14;10.65;;;2.55;;
46493;SDS011;53214;49.314;6.280;2024-01-30T09:20:41;4.47;;;2.25;;
46493;SDS011;53214;49.314;6.280;2024-01-30T09:23:08;4.90;;;2.20;;
46493;SDS011;53214;49.314;6.280;2024-01-30T09:25:34;6.78;;;2.10;;
46493;SDS011;53214;49.314;6.280;2024-01-30T09:28:01;3.70;;;2.30;;
46493;SDS011;53214;49.314;6.280;2024-01-30T09:30:28;3.85;;;2.13;;
46493;SDS011;53214;49.314;6.280;2024-01-30T09:32:55;4.40;;;2.33;;
46493;SDS011;53214;49.314;6.280;2024-01-30T09:35:22;4.22;;;2.35;;
46493;SDS011;53214;49.314;6.280;2024-01-30T09:37:49;6.88;;;2.58;;
46493;SDS011;53214;49.314;6.280;2024-01-30T09:40:15;5.55;;;2.75;;
46493;SDS011;53214;49.314;6.280;2024-01-30T09:42:48;4.78;;;2.40;;
46493;SDS011;53214;49.314;6.280;2024-01-30T09:45:17;5.85;;;2.83;;
46493;SDS011;53214;49.314;6.280;2024-01-30T09:47:45;6.03;;;2.67;;
46493;SDS011;53214;49.314;6.280;2024-01-30T09:50:14;5.45;;;2.30;;
46493;SDS011;53214;49.314;6.280;2024-01-30T09:52:44;4.28;;;1.92;;
46493;SDS011;53214;49.314;6.280;2024-01-30T09:55:12;4.57;;;2.17;;
46493;SDS011;53214;49.314;6.280;2024-01-30T09:57:39;4.80;;;1.70;;
46493;SDS011;53214;49.314;6.280;2024-01-30T10:00:08;3.90;;;2.00;;
46493;SDS011;53214;49.314;6.280;2024-01-30T10:02:35;4.75;;;2.03;;
46493;SDS011;53214;49.314;6.280;2024-01-30T10:05:02;6.32;;;2.20;;
46493;SDS011;53214;49.314;6.280;2024-01-30T10:07:29;3.75;;;1.98;;
46493;SDS011;53214;49.314;6.280;2024-01-30T10:09:57;6.70;;;2.03;;
46493;SDS011;53214;49.314;6.280;2024-01-30T10:12:25;3.95;;;1.90;;
46493;SDS011;53214;49.314;6.280;2024-01-30T10:14:53;4.18;;;2.00;;
46493;SDS011;53214;49.314;6.280;2024-01-30T10:17:24;4.95;;;1.95;;
46493;SDS011;53214;49.314;6.280;2024-01-30T10:19:59;3.25;;;2.10;;
46493;SDS011;53214;49.314;6.280;2024-01-30T10:22:27;5.90;;;3.00;;
46493;SDS011;53214;49.314;6.280;2024-01-30T10:24:55;2.63;;;1.60;;
46493;SDS011;53214;49.314;6.280;2024-01-30T10:27:25;2.88;;;1.45;;
46493;SDS011;53214;49.314;6.280;2024-01-30T10:29:53;4.30;;;1.67;;
46493;SDS011;53214;49.314;6.280;2024-01-30T10:32:20;4.95;;;2.22;;
46493;SDS011;53214;49.314;6.280;2024-01-30T10:34:47;6.07;;;2.20;;
46493;SDS011;53214;49.314;6.280;2024-01-30T10:37:15;5.40;;;2.72;;
46493;SDS011;53214;49.314;6.280;2024-01-30T10:39:44;5.53;;;1.80;;
46493;SDS011;53214;49.314;6.280;2024-01-30T10:42:12;4.20;;;1.50;;
46493;SDS011;53214;49.314;6.280;2024-01-30T10:47:34;3.75;;;1.90;;
46493;SDS011;53214;49.314;6.280;2024-01-30T10:50:05;3.83;;;1.50;;
46493;SDS011;53214;49.314;6.280;2024-01-30T10:52:34;2.78;;;1.50;;
46493;SDS011;53214;49.314;6.280;2024-01-30T10:55:01;3.03;;;1.55;;
46493;SDS011;53214;49.314;6.280;2024-01-30T10:57:32;3.85;;;1.80;;
46493;SDS011;53214;49.314;6.280;2024-01-30T11:00:01;7.38;;;1.75;;
46493;SDS011;53214;49.314;6.280;2024-01-30T11:02:40;3.92;;;1.60;;
46493;SDS011;53214;49.314;6.280;2024-01-30T11:05:13;3.45;;;1.75;;
46493;SDS011;53214;49.314;6.280;2024-01-30T11:07:42;3.42;;;1.25;;
46493;SDS011;53214;49.314;6.280;2024-01-30T11:10:09;3.45;;;1.30;;
46493;SDS011;53214;49.314;6.280;2024-01-30T11:12:40;4.25;;;1.35;;
46493;SDS011;53214;49.314;6.280;2024-01-30T11:15:12;3.90;;;1.45;;
46493;SDS011;53214;49.314;6.280;2024-01-30T11:17:44;3.38;;;1.23;;
46493;SDS011;53214;49.314;6.280;2024-01-30T11:22:50;2.97;;;1.33;;
46493;SDS011;53214;49.314;6.280;2024-01-30T11:25:21;3.03;;;1.20;;
46493;SDS011;53214;49.314;6.280;2024-01-30T11:27:50;3.20;;;1.20;;
46493;SDS011;53214;49.314;6.280;2024-01-30T11:33:08;4.07;;;1.85;;
46493;SDS011;53214;49.314;6.280;2024-01-30T11:35:38;3.97;;;1.58;;
46493;SDS011;53214;49.314;6.280;2024-01-30T11:38:08;3.90;;;1.58;;
46493;SDS011;53214;49.314;6.280;2024-01-30T11:40:37;3.25;;;1.70;;
46493;SDS011;53214;49.314;6.280;2024-01-30T11:43:05;3.17;;;1.50;;
46493;SDS011;53214;49.314;6.280;2024-01-30T11:45:33;3.28;;;0.90;;
46493;SDS011;53214;49.314;6.280;2024-01-30T11:48:02;2.20;;;0.90;;
46493;SDS011;53214;49.314;6.280;2024-01-30T11:50:32;3.15;;;1.05;;
46493;SDS011;53214;49.314;6.280;2024-01-30T11:53:00;2.47;;;0.90;;
46493;SDS011;53214;49.314;6.280;2024-01-30T11:55:29;3.60;;;0.95;;
46493;SDS011;53214;49.314;6.280;2024-01-30T11:58:00;4.45;;;0.88;;
46493;SDS011;53214;49.314;6.280;2024-01-30T12:00:28;2.05;;;0.90;;
46493;SDS011;53214;49.314;6.280;2024-01-30T12:02:57;4.63;;;0.90;;
46493;SDS011;53214;49.314;6.280;2024-01-30T12:05:26;2.25;;;1.08;;
46493;SDS011;53214;49.314;6.280;2024-01-30T12:07:54;2.78;;;0.70;;
46493;SDS011;53214;49.314;6.280;2024-01-30T12:10:21;4.13;;;0.90;;
46493;SDS011;53214;49.314;6.280;2024-01-30T12:12:50;3.03;;;1.20;;
46493;SDS011;53214;49.314;6.280;2024-01-30T12:15:18;2.78;;;1.20;;
46493;SDS011;53214;49.314;6.280;2024-01-30T12:17:47;2.70;;;1.30;;
46493;SDS011;53214;49.314;6.280;2024-01-30T12:20:15;3.08;;;1.30;;
46493;SDS011;53214;49.314;6.280;2024-01-30T12:22:46;6.47;;;1.20;;
46493;SDS011;53214;49.314;6.280;2024-01-30T12:25:15;1.67;;;0.80;;
46493;SDS011;53214;49.314;6.280;2024-01-30T12:27:44;2.30;;;0.60;;
46493;SDS011;53214;49.314;6.280;2024-01-30T12:30:19;3.17;;;0.50;;
46493;SDS011;53214;49.314;6.280;2024-01-30T12:32:49;3.40;;;0.70;;
46493;SDS011;53214;49.314;6.280;2024-01-30T12:35:18;4.20;;;1.10;;
46493;SDS011;53214;49.314;6.280;2024-01-30T12:37:47;6.10;;;1.10;;
46493;SDS011;53214;49.314;6.280;2024-01-30T12:40:15;3.47;;;0.63;;
46493;SDS011;53214;49.314;6.280;2024-01-30T12:42:42;5.15;;;1.00;;
46493;SDS011;53214;49.314;6.280;2024-01-30T12:45:15;3.15;;;1.20;;
46493;SDS011;53214;49.314;6.280;2024-01-30T12:47:46;4.57;;;0.90;;
46493;SDS011;53214;49.314;6.280;2024-01-30T12:50:13;2.67;;;0.80;;
46493;SDS011;53214;49.314;6.280;2024-01-30T12:52:42;5.47;;;1.00;;
46493;SDS011;53214;49.314;6.280;2024-01-30T12:55:13;3.45;;;0.90;;
46493;SDS011;53214;49.314;6.280;2024-01-30T12:57:40;1.95;;;1.00;;
46493;SDS011;53214;49.314;6.280;2024-01-30T13:00:08;2.13;;;0.80;;
46493;SDS011;53214;49.314;6.280;2024-01-30T13:02:35;2.13;;;0.88;;
46493;SDS011;53214;49.314;6.280;2024-01-30T13:05:03;3.05;;;0.90;;
46493;SDS011;53214;49.314;6.280;2024-01-30T13:07:31;2.47;;;0.77;;
46493;SDS011;53214;49.314;6.280;2024-01-30T13:09:58;2.53;;;0.75;;
46493;SDS011;53214;49.314;6.280;2024-01-30T13:12:29;3.40;;;0.90;;
46493;SDS011;53214;49.314;6.280;2024-01-30T13:14:58;3.53;;;0.52;;
46493;SDS011;53214;49.314;6.280;2024-01-30T13:17:27;2.95;;;0.90;;
46493;SDS011;53214;49.314;6.280;2024-01-30T13:19:54;5.32;;;1.60;;
46493;SDS011;53214;49.314;6.280;2024-01-30T13:22:27;1.88;;;0.77;;
46493;SDS011;53214;49.314;6.280;2024-01-30T13:24:54;3.42;;;0.93;;
46493;SDS011;53214;49.314;6.280;2024-01-30T13:27:21;4.75;;;0.90;;
46493;SDS011;53214;49.314;6.280;2024-01-30T13:29:48;2.30;;;1.00;;
46493;SDS011;53214;49.314;6.280;2024-01-30T13:32:15;5.60;;;1.40;;
46493;SDS011;53214;49.314;6.280;2024-01-30T13:34:42;1.65;;;0.77;;
46493;SDS011;53214;49.314;6.280;2024-01-30T13:37:09;2.50;;;0.88;;
46493;SDS011;53214;49.314;6.280;2024-01-30T13:39:36;5.57;;;1.05;;
46493;SDS011;53214;49.314;6.280;2024-01-30T13:42:05;2.72;;;1.00;;
46493;SDS011;53214;49.314;6.280;2024-01-30T13:44:32;2.42;;;0.98;;
46493;SDS011;53214;49.314;6.280;2024-01-30T13:47:00;2.30;;;1.00;;
46493;SDS011;53214;49.314;6.280;2024-01-30T13:49:27;3.17;;;0.60;;
46493;SDS011;53214;49.314;6.280;2024-01-30T13:51:55;2.10;;;0.70;;
46493;SDS011;53214;49.314;6.280;2024-01-30T13:54:23;2.03;;;0.60;;
46493;SDS011;53214;49.314;6.280;2024-01-30T13:56:50;3.13;;;0.80;;
46493;SDS011;53214;49.314;6.280;2024-01-30T13:59:17;2.97;;;0.80;;
46493;SDS011;53214;49.314;6.280;2024-01-30T14:01:50;3.17;;;0.93;;
46493;SDS011;53214;49.314;6.280;2024-01-30T14:04:17;4.25;;;0.95;;
46493;SDS011;53214;49.314;6.280;2024-01-30T14:06:44;2.63;;;0.70;;
46493;SDS011;53214;49.314;6.280;2024-01-30T14:09:22;3.92;;;0.80;;
46493;SDS011;53214;49.314;6.280;2024-01-30T14:11:49;1.33;;;0.70;;
46493;SDS011;53214;49.314;6.280;2024-01-30T14:14:16;4.57;;;0.80;;
46493;SDS011;53214;49.314;6.280;2024-01-30T14:16:42;3.20;;;1.10;;
46493;SDS011;53214;49.314;6.280;2024-01-30T14:19:09;1.20;;;0.73;;
46493;SDS011;53214;49.314;6.280;2024-01-30T14:21:36;3.28;;;0.82;;
46493;SDS011;53214;49.314;6.280;2024-01-30T14:24:03;3.15;;;0.95;;
46493;SDS011;53214;49.314;6.280;2024-01-30T14:26:30;2.33;;;0.85;;
46493;SDS011;53214;49.314;6.280;2024-01-30T14:28:57;3.00;;;0.82;;
46493;SDS011;53214;49.314;6.280;2024-01-30T14:31:24;4.22;;;1.02;;
46493;SDS011;53214;49.314;6.280;2024-01-30T14:33:51;2.38;;;0.52;;
46493;SDS011;53214;49.314;6.280;2024-01-30T14:36:18;3.00;;;0.90;;
46493;SDS011;53214;49.314;6.280;2024-01-30T14:38:46;1.38;;;0.50;;
46493;SDS011;53214;49.314;6.280;2024-01-30T14:41:13;2.20;;;0.50;;
46493;SDS011;53214;49.314;6.280;2024-01-30T14:43:40;1.13;;;0.50;;
46493;SDS011;53214;49.314;6.280;2024-01-30T14:46:07;1.85;;;0.55;;
46493;SDS011;53214;49.314;6.280;2024-01-30T14:48:34;1.17;;;0.50;;
46493;SDS011;53214;49.314;6.280;2024-01-30T14:51:01;2.10;;;0.60;;
46493;SDS011;53214;49.314;6.280;2024-01-30T14:53:28;3.08;;;0.80;;